Time;durP1;ratioP1;P1;durP2;ratioP2;P2;SDS_P1;SDS_P2;PMS_P1;PMS_P2;Temp;Humidity;BMP_temperature;BMP_pressure;BME280_temperature;BME280_humidity;BME280_pressure;Samples;Min_cycle;Max_cycle;Signal;HPM_P1;HPM_P2
2023/08/29 00:00:12;;;;;;;3.13;2.78;;;20.90;99.90;;;;;;5018337;28;44673;-59
2023/08/29 00:02:41;;;;;;;4.70;2.35;;;21.00;99.90;;;;;;5018540;28;45103;-58
2023/08/29 00:05:08;;;;;;;3.15;2.55;;;20.90;99.90;;;;;;5019715;28;45423;-58
2023/08/29 00:07:35;;;;;;;2.65;2.17;;;20.90;99.90;;;;;;5024146;28;46962;-58
2023/08/29 00:10:02;;;;;;;3.70;2.90;;;20.90;99.90;;;;;;5024545;28;45142;-59
2023/08/29 00:12:31;;;;;;;3.20;2.15;;;20.90;99.90;;;;;;5021955;28;45130;-58
2023/08/29 00:14:58;;;;;;;4.18;2.75;;;20.90;99.90;;;;;;5022644;28;45524;-58
2023/08/29 00:17:26;;;;;;;3.60;2.63;;;20.90;99.90;;;;;;5022582;28;45290;-58
2023/08/29 00:19:53;;;;;;;5.75;2.53;;;21.00;99.90;;;;;;5024254;28;45183;-58
2023/08/29 00:22:20;;;;;;;3.72;2.70;;;20.90;99.90;;;;;;5011977;28;44700;-58
2023/08/29 00:24:46;;;;;;;4.00;2.75;;;20.90;99.90;;;;;;5013820;28;45103;-58
2023/08/29 00:27:13;;;;;;;3.72;2.78;;;20.90;99.90;;;;;;5008942;28;45304;-58
2023/08/29 00:29:42;;;;;;;4.93;2.83;;;20.90;99.90;;;;;;5020593;28;45226;-58
2023/08/29 00:32:09;;;;;;;4.88;2.75;;;20.90;99.90;;;;;;5021135;28;45295;-59
2023/08/29 00:34:36;;;;;;;4.28;3.25;;;20.80;99.90;;;;;;5022330;28;45228;-59
2023/08/29 00:37:02;;;;;;;3.95;2.90;;;20.80;99.90;;;;;;5023751;28;46304;-58
2023/08/29 00:39:29;;;;;;;3.78;2.90;;;20.80;99.90;;;;;;5024173;28;45600;-58
2023/08/29 00:41:56;;;;;;;3.38;3.08;;;20.80;99.90;;;;;;5021536;28;45253;-59
2023/08/29 00:44:23;;;;;;;3.22;2.83;;;20.90;99.90;;;;;;5023514;28;45128;-58
2023/08/29 00:46:52;;;;;;;3.80;2.88;;;20.90;99.90;;;;;;5014635;28;46045;-58
2023/08/29 00:49:23;;;;;;;4.50;2.88;;;20.90;99.90;;;;;;5013107;28;45119;-58
2023/08/29 00:51:50;;;;;;;3.47;2.50;;;20.80;99.90;;;;;;5021835;28;45039;-59
2023/08/29 00:54:18;;;;;;;3.60;2.45;;;20.90;99.90;;;;;;5023803;28;45310;-58
2023/08/29 00:56:46;;;;;;;4.40;2.60;;;20.90;99.90;;;;;;5021622;28;46952;-58
2023/08/29 00:59:13;;;;;;;3.92;2.83;;;20.90;99.90;;;;;;5019908;28;45214;-58
2023/08/29 01:01:41;;;;;;;2.90;2.60;;;20.90;99.90;;;;;;5024189;28;45256;-58
2023/08/29 01:04:09;;;;;;;3.78;2.92;;;20.90;99.90;;;;;;5021223;28;45188;-58
2023/08/29 01:06:37;;;;;;;3.83;3.03;;;20.90;99.90;;;;;;5014219;28;44918;-58
2023/08/29 01:09:06;;;;;;;3.80;3.33;;;20.90;99.90;;;;;;5023370;28;45154;-58
2023/08/29 01:11:38;;;;;;;3.10;2.60;;;20.90;99.90;;;;;;5022074;28;44578;-58
2023/08/29 01:14:14;;;;;;;6.35;2.75;;;20.80;99.90;;;;;;5014844;28;45112;-58
2023/08/29 01:16:46;;;;;;;4.38;2.75;;;20.80;99.90;;;;;;5023280;28;47127;-58
2023/08/29 01:19:15;;;;;;;4.30;3.22;;;20.90;99.90;;;;;;5019527;28;45149;-58
2023/08/29 01:21:49;;;;;;;6.95;3.08;;;20.90;99.90;;;;;;5023129;28;44584;-58
2023/08/29 01:24:24;;;;;;;3.65;3.25;;;20.80;99.90;;;;;;5015391;28;45020;-58
2023/08/29 01:26:53;;;;;;;3.03;2.72;;;20.90;99.90;;;;;;5022576;28;46592;-58
2023/08/29 01:29:21;;;;;;;4.07;3.05;;;20.90;99.90;;;;;;5015487;28;45098;-58
2023/08/29 01:31:50;;;;;;;3.85;2.90;;;20.80;99.90;;;;;;5021321;28;45146;-59
2023/08/29 01:34:18;;;;;;;4.85;2.80;;;20.90;99.90;;;;;;5021737;28;45048;-58
2023/08/29 01:36:45;;;;;;;3.00;2.70;;;20.90;99.90;;;;;;5021537;28;47006;-58
2023/08/29 01:39:12;;;;;;;2.53;2.33;;;20.90;99.90;;;;;;5023053;28;45143;-58
2023/08/29 01:41:39;;;;;;;3.38;2.53;;;20.90;99.90;;;;;;5021765;28;45151;-58
2023/08/29 01:44:07;;;;;;;3.10;2.63;;;20.90;99.90;;;;;;5012399;28;45093;-59
2023/08/29 01:46:34;;;;;;;4.55;2.88;;;21.00;99.90;;;;;;5016021;28;45259;-59
2023/08/29 01:49:03;;;;;;;3.50;2.75;;;20.90;99.90;;;;;;5016793;28;45135;-58
2023/08/29 01:51:30;;;;;;;5.68;2.92;;;20.90;99.90;;;;;;5015906;28;45273;-59
2023/08/29 01:53:58;;;;;;;2.97;2.67;;;20.90;99.90;;;;;;5020482;28;45238;-58
2023/08/29 01:56:28;;;;;;;3.92;3.03;;;20.90;99.90;;;;;;5012947;28;45196;-58
2023/08/29 01:58:56;;;;;;;3.70;2.85;;;20.80;99.90;;;;;;5017809;28;45350;-59
2023/08/29 02:01:25;;;;;;;3.00;2.70;;;20.90;99.90;;;;;;5014963;28;45122;-58
2023/08/29 02:03:52;;;;;;;5.22;3.17;;;20.80;99.90;;;;;;5025776;28;45377;-58
2023/08/29 02:06:19;;;;;;;3.63;2.58;;;20.70;99.90;;;;;;5022138;28;47018;-59
2023/08/29 02:08:46;;;;;;;4.53;2.53;;;20.70;99.90;;;;;;5024277;28;45632;-58
2023/08/29 02:11:12;;;;;;;4.63;2.65;;;20.70;99.90;;;;;;5026455;28;45139;-58
2023/08/29 02:13:39;;;;;;;2.78;2.38;;;20.70;99.90;;;;;;5024288;28;45266;-58
2023/08/29 02:16:06;;;;;;;4.57;2.38;;;20.80;99.90;;;;;;5020749;28;47086;-58
2023/08/29 02:18:34;;;;;;;3.92;2.60;;;20.80;99.90;;;;;;5019743;28;45135;-58
2023/08/29 02:21:01;;;;;;;3.45;2.67;;;20.90;99.90;;;;;;5023731;28;45183;-58
2023/08/29 02:23:28;;;;;;;3.45;2.90;;;20.90;99.90;;;;;;5019356;28;45218;-58
2023/08/29 02:26:02;;;;;;;4.85;2.70;;;20.90;99.90;;;;;;5023900;28;45378;-58
2023/08/29 02:28:29;;;;;;;3.08;2.75;;;20.80;99.90;;;;;;5018289;28;45055;-58
2023/08/29 02:30:55;;;;;;;3.83;2.92;;;20.80;99.90;;;;;;5024474;28;45041;-58
2023/08/29 02:33:22;;;;;;;3.40;3.03;;;20.80;99.90;;;;;;5022932;28;45443;-58
2023/08/29 02:35:50;;;;;;;5.53;2.90;;;20.80;99.90;;;;;;5019293;28;47461;-58
2023/08/29 02:38:17;;;;;;;3.53;3.17;;;20.80;99.90;;;;;;5026210;28;45290;-58
2023/08/29 02:40:44;;;;;;;4.32;3.35;;;20.80;99.90;;;;;;5017252;28;45033;-58
2023/08/29 02:43:11;;;;;;;5.07;3.10;;;20.80;99.90;;;;;;5023537;28;45119;-59
2023/08/29 02:45:37;;;;;;;3.95;2.90;;;20.80;99.90;;;;;;5023814;28;48682;-58
2023/08/29 02:48:05;;;;;;;3.85;3.03;;;20.80;99.90;;;;;;5010663;28;45159;-59
2023/08/29 02:50:32;;;;;;;3.33;2.65;;;20.80;99.90;;;;;;5016123;28;45143;-58
2023/08/29 02:53:00;;;;;;;4.00;3.08;;;20.70;99.90;;;;;;5012340;28;45254;-59
2023/08/29 02:55:27;;;;;;;4.75;2.78;;;20.80;99.90;;;;;;5020123;28;45444;-59
2023/08/29 02:57:54;;;;;;;3.42;3.13;;;20.80;99.90;;;;;;5023224;28;45149;-58
2023/08/29 03:00:21;;;;;;;3.35;2.90;;;20.80;99.90;;;;;;5018978;28;45201;-59
2023/08/29 03:02:47;;;;;;;5.13;3.10;;;20.80;99.90;;;;;;5022903;28;45217;-58
2023/08/29 03:05:15;;;;;;;3.00;2.70;;;20.70;99.90;;;;;;5017588;28;45281;-59
2023/08/29 03:07:42;;;;;;;3.25;2.95;;;20.70;99.90;;;;;;5025597;28;45657;-58
2023/08/29 03:10:11;;;;;;;4.72;2.80;;;20.70;99.90;;;;;;5014383;28;45163;-58
2023/08/29 03:12:38;;;;;;;7.25;3.35;;;20.70;99.90;;;;;;5013381;28;45147;-58
2023/08/29 03:15:06;;;;;;;4.45;3.35;;;20.60;99.90;;;;;;5024673;28;45279;-59
2023/08/29 03:17:32;;;;;;;3.63;2.80;;;20.60;99.90;;;;;;5017130;28;45093;-58
2023/08/29 03:20:00;;;;;;;4.70;2.78;;;20.50;99.90;;;;;;5023341;28;45217;-59
2023/08/29 03:22:27;;;;;;;3.92;2.88;;;20.50;99.90;;;;;;5022181;28;45315;-58
2023/08/29 03:24:54;;;;;;;4.15;3.03;;;20.60;99.90;;;;;;5015034;28;46029;-58
2023/08/29 03:27:22;;;;;;;4.50;2.75;;;20.50;99.90;;;;;;5016978;28;45172;-58
2023/08/29 03:29:51;;;;;;;3.97;2.70;;;20.50;99.90;;;;;;5025122;28;45096;-58
2023/08/29 03:32:18;;;;;;;5.75;3.10;;;20.60;99.90;;;;;;5021938;28;45203;-58
2023/08/29 03:34:45;;;;;;;3.05;2.60;;;20.50;99.90;;;;;;5024161;28;45261;-59
2023/08/29 03:37:11;;;;;;;3.80;2.80;;;20.50;99.90;;;;;;5007304;28;45317;-58
2023/08/29 03:39:38;;;;;;;3.10;2.45;;;20.60;99.90;;;;;;5025727;28;45178;-58
2023/08/29 03:42:05;;;;;;;5.07;3.20;;;20.50;99.90;;;;;;5020080;28;45068;-58
2023/08/29 03:44:33;;;;;;;3.10;2.50;;;20.50;99.90;;;;;;5022529;28;46324;-58
2023/08/29 03:47:00;;;;;;;4.40;2.80;;;20.40;99.90;;;;;;5022703;28;45215;-58
2023/08/29 03:49:27;;;;;;;5.88;2.58;;;20.40;99.90;;;;;;5020398;28;45360;-58
2023/08/29 03:51:54;;;;;;;6.00;2.72;;;20.40;99.90;;;;;;5010526;28;45203;-58
2023/08/29 03:54:21;;;;;;;4.15;2.90;;;20.40;99.90;;;;;;5018221;28;46366;-59
2023/08/29 03:56:49;;;;;;;5.32;2.83;;;20.50;99.90;;;;;;5013468;28;45056;-59
2023/08/29 03:59:15;;;;;;;4.32;3.35;;;20.50;99.90;;;;;;5021639;28;45148;-59
2023/08/29 04:01:44;;;;;;;4.47;2.83;;;20.40;99.90;;;;;;5023336;28;45142;-59
2023/08/29 04:04:11;;;;;;;3.50;3.03;;;20.50;99.90;;;;;;5022740;28;45252;-59
2023/08/29 04:06:38;;;;;;;4.72;2.80;;;20.50;99.90;;;;;;5017103;28;45092;-59
2023/08/29 04:09:08;;;;;;;5.68;2.70;;;20.50;99.90;;;;;;5024447;28;44600;-59
2023/08/29 04:11:34;;;;;;;6.28;2.83;;;20.40;99.90;;;;;;5022670;28;45180;-59
2023/08/29 04:14:02;;;;;;;4.65;2.90;;;20.50;99.90;;;;;;5017109;28;46028;-59
2023/08/29 04:16:28;;;;;;;4.97;2.80;;;20.50;99.90;;;;;;5018537;28;45658;-57
2023/08/29 04:18:56;;;;;;;4.93;2.97;;;20.40;99.90;;;;;;5020952;28;45121;-58
2023/08/29 04:21:23;;;;;;;7.30;3.03;;;20.50;99.90;;;;;;5018212;28;45255;-56
2023/08/29 04:23:50;;;;;;;3.83;3.17;;;20.40;99.90;;;;;;5016371;28;47303;-57
2023/08/29 04:26:18;;;;;;;4.72;2.92;;;20.40;99.90;;;;;;5023810;28;45265;-57
2023/08/29 04:28:44;;;;;;;3.80;2.85;;;20.40;99.90;;;;;;5022536;28;45162;-57
2023/08/29 04:31:11;;;;;;;3.10;2.80;;;20.50;99.90;;;;;;5012872;28;45243;-58
2023/08/29 04:33:39;;;;;;;3.45;2.97;;;20.50;99.90;;;;;;5017649;28;46579;-59
2023/08/29 04:36:07;;;;;;;2.97;2.60;;;20.50;99.90;;;;;;5013282;28;45259;-59
2023/08/29 04:38:35;;;;;;;3.83;2.85;;;20.50;99.90;;;;;;5018032;28;45075;-59
2023/08/29 04:41:03;;;;;;;3.88;2.67;;;20.50;99.90;;;;;;5020981;28;45295;-59
2023/08/29 04:43:29;;;;;;;4.00;2.85;;;20.50;99.90;;;;;;5022466;28;45383;-59
2023/08/29 04:45:56;;;;;;;3.47;2.92;;;20.50;99.90;;;;;;5022182;28;45135;-58
2023/08/29 04:48:23;;;;;;;3.50;2.70;;;20.50;99.90;;;;;;5021509;28;45178;-58
2023/08/29 04:50:49;;;;;;;5.95;2.70;;;20.50;99.90;;;;;;5020980;28;45163;-58
2023/08/29 04:53:18;;;;;;;4.03;2.75;;;20.50;99.90;;;;;;5015682;28;45181;-58
2023/08/29 04:55:44;;;;;;;3.85;3.03;;;20.50;99.90;;;;;;5022584;28;45139;-58
2023/08/29 04:58:11;;;;;;;7.22;2.83;;;20.50;99.90;;;;;;5017674;28;45242;-59
2023/08/29 05:00:38;;;;;;;4.13;2.83;;;20.40;99.90;;;;;;5024035;28;45223;-59
2023/08/29 05:03:05;;;;;;;4.07;2.90;;;20.40;99.90;;;;;;5018881;28;47290;-59
2023/08/29 05:05:32;;;;;;;3.38;2.85;;;20.50;99.90;;;;;;5023884;28;45271;-59
2023/08/29 05:07:59;;;;;;;4.45;2.67;;;20.50;99.90;;;;;;5022116;28;45099;-59
2023/08/29 05:10:27;;;;;;;7.20;3.22;;;20.30;99.90;;;;;;5021674;28;45096;-59
2023/08/29 05:12:54;;;;;;;4.32;2.80;;;20.40;99.90;;;;;;5023218;28;46651;-59
2023/08/29 05:15:20;;;;;;;4.68;3.50;;;20.30;99.90;;;;;;5020833;28;44611;-59
2023/08/29 05:17:47;;;;;;;4.65;3.10;;;20.30;99.90;;;;;;5021853;28;45091;-59
2023/08/29 05:20:14;;;;;;;6.03;3.42;;;20.30;99.90;;;;;;5023780;28;45137;-59
2023/08/29 05:22:41;;;;;;;5.60;3.30;;;20.20;99.90;;;;;;5018016;28;45524;-59
2023/08/29 05:25:08;;;;;;;5.20;2.70;;;20.20;99.90;;;;;;5020959;28;45161;-59
2023/08/29 05:27:36;;;;;;;6.07;3.40;;;20.30;99.90;;;;;;5021614;28;45098;-59
2023/08/29 05:30:04;;;;;;;3.25;2.80;;;20.50;99.90;;;;;;5022601;28;45107;-59
2023/08/29 05:32:31;;;;;;;4.15;3.15;;;20.40;99.90;;;;;;5016707;28;47392;-59
2023/08/29 05:34:58;;;;;;;2.92;2.63;;;20.40;99.90;;;;;;5023582;28;45367;-59
2023/08/29 05:37:25;;;;;;;4.15;3.08;;;20.30;99.90;;;;;;5023728;28;45136;-59
2023/08/29 05:39:52;;;;;;;5.32;3.30;;;20.30;99.90;;;;;;5023467;28;44630;-59
2023/08/29 05:42:19;;;;;;;6.82;2.95;;;20.30;99.90;;;;;;5015938;28;47260;-59
2023/08/29 05:44:47;;;;;;;3.92;2.90;;;20.30;99.90;;;;;;5015589;28;45160;-59
2023/08/29 05:47:14;;;;;;;3.72;2.97;;;20.30;99.90;;;;;;5021119;28;45102;-59
2023/08/29 05:49:40;;;;;;;4.18;3.22;;;20.30;99.90;;;;;;5021254;28;44801;-59
2023/08/29 05:52:07;;;;;;;3.80;3.10;;;20.30;99.90;;;;;;5022360;28;46245;-59
2023/08/29 05:54:36;;;;;;;4.05;2.92;;;20.30;99.90;;;;;;5023507;28;45171;-59
2023/08/29 05:57:03;;;;;;;5.35;3.05;;;20.40;99.90;;;;;;5017932;28;45321;-59
2023/08/29 05:59:30;;;;;;;6.00;3.60;;;20.40;99.90;;;;;;5020135;28;44877;-59
2023/08/29 06:01:58;;;;;;;5.57;3.10;;;20.40;99.90;;;;;;5015049;28;48385;-59
2023/08/29 06:04:25;;;;;;;5.38;2.80;;;20.40;99.90;;;;;;5012877;28;45268;-59
2023/08/29 06:06:52;;;;;;;4.35;2.95;;;20.40;99.90;;;;;;5019525;28;45305;-59
2023/08/29 06:09:19;;;;;;;4.82;3.38;;;20.40;99.90;;;;;;5017758;28;45198;-59
2023/08/29 06:11:46;;;;;;;4.90;3.33;;;20.40;99.90;;;;;;5012754;28;47292;-59
2023/08/29 06:14:12;;;;;;;5.13;3.30;;;20.30;99.90;;;;;;5020085;28;45049;-59
2023/08/29 06:16:39;;;;;;;6.57;3.35;;;20.40;99.90;;;;;;5021653;28;45363;-59
2023/08/29 06:19:07;;;;;;;4.07;3.20;;;20.40;99.90;;;;;;5018153;28;45400;-59
2023/08/29 06:21:34;;;;;;;5.07;3.40;;;20.40;99.90;;;;;;5020053;28;47484;-59
2023/08/29 06:24:01;;;;;;;4.60;3.42;;;20.40;99.90;;;;;;5019406;28;45037;-59
2023/08/29 06:26:28;;;;;;;5.03;3.28;;;20.40;99.90;;;;;;5017556;28;45313;-59
2023/08/29 06:28:55;;;;;;;5.60;2.83;;;20.50;99.90;;;;;;5020048;28;45341;-59
2023/08/29 06:31:21;;;;;;;5.35;3.20;;;20.80;99.90;;;;;;5018212;28;46205;-59
2023/08/29 06:33:49;;;;;;;8.90;3.47;;;20.60;99.90;;;;;;5009790;28;45041;-59
2023/08/29 06:36:17;;;;;;;3.85;3.05;;;20.60;99.90;;;;;;5004604;28;45092;-59
2023/08/29 06:38:43;;;;;;;4.45;3.50;;;20.50;99.90;;;;;;5010845;28;45307;-59
2023/08/29 06:41:10;;;;;;;6.18;3.50;;;20.50;99.90;;;;;;5006908;28;46528;-59
2023/08/29 06:43:37;;;;;;;5.75;3.53;;;20.50;99.90;;;;;;5017449;28;45179;-59
2023/08/29 06:46:04;;;;;;;4.88;3.35;;;20.50;99.90;;;;;;5018950;28;45101;-59
2023/08/29 06:48:31;;;;;;;6.03;3.53;;;20.50;99.90;;;;;;5022904;28;45239;-59
2023/08/29 06:50:58;;;;;;;5.38;3.30;;;20.50;99.90;;;;;;5023046;28;45104;-59
2023/08/29 06:53:26;;;;;;;4.20;3.80;;;20.50;99.90;;;;;;5024114;28;45193;-59
2023/08/29 06:55:53;;;;;;;4.38;3.42;;;20.50;99.90;;;;;;5026683;28;45178;-59
2023/08/29 06:58:20;;;;;;;4.20;3.40;;;20.50;99.90;;;;;;5017626;28;44663;-59
2023/08/29 07:00:47;;;;;;;6.35;3.58;;;20.60;99.90;;;;;;5012715;28;45188;-59
2023/08/29 07:03:13;;;;;;;5.80;4.15;;;20.50;99.90;;;;;;5023128;28;45138;-59
2023/08/29 07:05:40;;;;;;;4.55;3.83;;;20.50;99.90;;;;;;5011066;28;45108;-59
2023/08/29 07:08:07;;;;;;;5.38;3.83;;;20.50;99.90;;;;;;5006057;28;45068;-59
2023/08/29 07:10:35;;;;;;;6.43;3.78;;;20.50;99.90;;;;;;5021957;28;46222;-59
2023/08/29 07:13:03;;;;;;;4.50;3.88;;;20.60;99.90;;;;;;5023764;28;45208;-59
2023/08/29 07:15:30;;;;;;;9.23;4.68;;;20.60;99.90;;;;;;5025531;28;45131;-59
2023/08/29 07:17:57;;;;;;;6.43;4.32;;;20.50;99.90;;;;;;5022221;28;45176;-59
2023/08/29 07:20:24;;;;;;;5.28;4.25;;;20.50;99.90;;;;;;5024957;28;45239;-59
2023/08/29 07:22:51;;;;;;;5.22;4.05;;;20.50;99.90;;;;;;5017677;28;45129;-59
2023/08/29 07:25:19;;;;;;;8.45;4.65;;;20.50;99.90;;;;;;5023603;28;45079;-59
2023/08/29 07:27:48;;;;;;;4.82;3.97;;;20.60;99.90;;;;;;5017728;28;45222;-59
2023/08/29 07:30:15;;;;;;;5.30;4.20;;;20.60;99.90;;;;;;5022127;28;48250;-59
2023/08/29 07:32:43;;;;;;;8.05;4.80;;;20.60;99.90;;;;;;5019246;28;45196;-59
2023/08/29 07:35:10;;;;;;;6.93;4.88;;;20.60;99.90;;;;;;5015997;28;45174;-59
2023/08/29 07:37:36;;;;;;;4.50;3.72;;;20.60;99.90;;;;;;5023065;28;45288;-59
2023/08/29 07:40:04;;;;;;;6.03;4.22;;;20.60;99.90;;;;;;5024946;28;45156;-59
2023/08/29 07:42:31;;;;;;;7.68;4.40;;;20.70;99.90;;;;;;5023349;28;45131;-59
2023/08/29 07:44:59;;;;;;;7.22;4.90;;;20.70;99.90;;;;;;5016460;28;45076;-59
2023/08/29 07:47:26;;;;;;;11.68;4.70;;;20.70;99.90;;;;;;5019745;28;45157;-59
2023/08/29 07:49:53;;;;;;;6.82;4.30;;;20.70;99.90;;;;;;5023492;28;47101;-59
2023/08/29 07:52:20;;;;;;;7.03;4.45;;;20.80;99.90;;;;;;5022785;28;45658;-59
2023/08/29 07:54:46;;;;;;;6.70;4.45;;;20.80;99.90;;;;;;5022429;28;45154;-59
2023/08/29 07:57:13;;;;;;;8.23;4.35;;;20.80;99.90;;;;;;5020451;28;45356;-60
2023/08/29 07:59:40;;;;;;;6.65;4.93;;;20.80;99.90;;;;;;5023175;28;47371;-60
2023/08/29 08:02:08;;;;;;;7.10;4.80;;;20.80;99.90;;;;;;5019847;28;45142;-60
2023/08/29 08:04:35;;;;;;;6.30;4.97;;;20.80;99.90;;;;;;5018651;28;45203;-60
2023/08/29 08:07:02;;;;;;;8.30;4.60;;;20.80;99.90;;;;;;5009330;28;45116;-60
2023/08/29 08:09:29;;;;;;;7.45;4.15;;;20.90;99.90;;;;;;5024762;28;45218;-60
2023/08/29 08:11:56;;;;;;;6.30;4.15;;;20.90;99.90;;;;;;5020504;28;45129;-60
2023/08/29 08:14:23;;;;;;;9.25;4.70;;;20.90;98.90;;;;;;5025043;28;45118;-60
2023/08/29 08:16:50;;;;;;;6.45;4.07;;;21.00;99.10;;;;;;5016702;28;45294;-60
2023/08/29 08:19:18;;;;;;;6.78;4.38;;;21.20;98.80;;;;;;5020953;28;46029;-59
2023/08/29 08:21:44;;;;;;;8.90;4.30;;;21.20;98.30;;;;;;5015950;28;45322;-59
2023/08/29 08:24:11;;;;;;;5.78;4.63;;;21.10;98.20;;;;;;5021905;28;45348;-59
2023/08/29 08:26:38;;;;;;;5.55;3.90;;;21.00;98.40;;;;;;5024358;28;45202;-58
2023/08/29 08:29:05;;;;;;;7.90;4.53;;;21.10;98.00;;;;;;5024294;28;45236;-57
2023/08/29 08:31:32;;;;;;;5.90;4.32;;;21.30;98.00;;;;;;5021947;28;45194;-57
2023/08/29 08:33:59;;;;;;;7.32;4.78;;;21.20;97.70;;;;;;5015323;28;45419;-57
2023/08/29 08:36:28;;;;;;;5.93;3.35;;;21.00;98.80;;;;;;5011184;28;45253;-57
2023/08/29 08:38:55;;;;;;;4.70;3.60;;;21.20;99.20;;;;;;5014730;28;45399;-57
2023/08/29 08:41:21;;;;;;;5.20;3.47;;;21.40;98.70;;;;;;5009989;28;45685;-58
2023/08/29 08:43:49;;;;;;;5.88;3.60;;;21.50;98.50;;;;;;5007949;28;45275;-58
2023/08/29 08:46:17;;;;;;;6.15;3.83;;;21.60;98.00;;;;;;5011192;28;45078;-59
2023/08/29 08:48:44;;;;;;;7.63;4.00;;;21.60;97.40;;;;;;5022404;28;47289;-57
2023/08/29 08:51:13;;;;;;;6.45;3.92;;;21.60;97.30;;;;;;5020817;28;45161;-57
2023/08/29 08:53:42;;;;;;;13.23;4.15;;;21.60;96.90;;;;;;5018228;28;45193;-57
2023/08/29 08:56:09;;;;;;;6.88;3.90;;;21.70;97.10;;;;;;5016333;28;45330;-57
2023/08/29 08:58:37;;;;;;;5.63;3.78;;;21.70;97.00;;;;;;5013718;28;45401;-57
2023/08/29 09:01:05;;;;;;;5.72;3.60;;;21.60;97.10;;;;;;5017976;28;45178;-57
2023/08/29 09:03:32;;;;;;;6.57;3.33;;;21.70;97.20;;;;;;5019425;28;45131;-58
2023/08/29 09:05:59;;;;;;;4.55;2.90;;;21.60;97.10;;;;;;5013892;28;45163;-59
2023/08/29 09:08:25;;;;;;;5.88;2.72;;;21.60;97.00;;;;;;5017222;28;46913;-59
2023/08/29 09:10:53;;;;;;;6.95;3.05;;;21.60;96.80;;;;;;5008452;28;45064;-59
2023/08/29 09:13:22;;;;;;;5.82;3.15;;;21.70;96.90;;;;;;5016392;28;45155;-59
2023/08/29 09:15:49;;;;;;;5.88;2.50;;;21.70;96.60;;;;;;5012890;28;45222;-62
2023/08/29 09:18:24;;;;;;;6.68;3.72;;;21.80;96.60;;;;;;5007734;28;45190;-65
2023/08/29 09:20:52;;;;;;;6.18;3.65;;;19.70;99.90;;;;;;5014889;28;44973;-65
2023/08/29 09:23:23;;;;;;;6.47;3.60;;;18.50;99.90;;;;;;5017799;28;45193;-65
2023/08/29 09:25:55;;;;;;;4.82;3.28;;;18.10;99.90;;;;;;5008323;28;45151;-65
2023/08/29 09:28:23;;;;;;;7.50;3.35;;;18.10;99.90;;;;;;5014855;28;46569;-65
2023/08/29 09:30:50;;;;;;;3.90;3.00;;;18.10;99.90;;;;;;5015028;28;45218;-65
2023/08/29 09:33:20;;;;;;;6.13;2.58;;;18.10;99.90;;;;;;5016452;28;45048;-64
2023/08/29 09:35:47;;;;;;;3.78;3.20;;;18.20;99.90;;;;;;5021584;28;45161;-64
2023/08/29 09:38:14;;;;;;;5.28;2.72;;;18.20;99.90;;;;;;5020360;28;45277;-64
2023/08/29 09:40:48;;;;;;;5.05;2.70;;;18.30;99.90;;;;;;5017834;28;45116;-64
2023/08/29 09:43:17;;;;;;;4.28;2.30;;;18.30;99.90;;;;;;5020401;28;45314;-64
2023/08/29 09:45:49;;;;;;;4.93;2.55;;;18.40;99.90;;;;;;5013532;28;44627;-65
2023/08/29 09:48:16;;;;;;;8.30;2.58;;;18.50;99.90;;;;;;5021339;28;47292;-64
2023/08/29 09:50:45;;;;;;;7.55;2.20;;;18.40;99.90;;;;;;5016821;28;45021;-65
2023/08/29 09:53:16;;;;;;;4.30;1.90;;;18.30;99.90;;;;;;5019575;28;45294;-65
2023/08/29 09:55:45;;;;;;;4.63;2.00;;;18.40;99.90;;;;;;5020237;28;45119;-65
2023/08/29 09:58:14;;;;;;;6.28;3.22;;;18.60;99.90;;;;;;5023481;28;47376;-65
2023/08/29 10:00:44;;;;;;;4.72;2.70;;;18.70;99.90;;;;;;5021890;28;45195;-65
2023/08/29 10:03:12;;;;;;;3.80;2.45;;;18.70;99.90;;;;;;5016409;28;44604;-65
2023/08/29 10:05:40;;;;;;;5.90;2.70;;;18.80;99.90;;;;;;5021580;28;45373;-65
2023/08/29 10:08:16;;;;;;;5.43;2.65;;;18.80;99.90;;;;;;5021128;28;46436;-65
2023/08/29 10:10:44;;;;;;;6.18;2.42;;;18.70;99.20;;;;;;5011958;28;45180;-65
2023/08/29 10:13:12;;;;;;;3.30;1.90;;;18.70;99.90;;;;;;5021304;28;45036;-65
2023/08/29 10:15:42;;;;;;;4.13;2.35;;;19.00;99.50;;;;;;5014576;28;45401;-65
2023/08/29 10:18:09;;;;;;;6.13;2.22;;;19.10;98.00;;;;;;5012858;28;45162;-65
2023/08/29 10:20:37;;;;;;;4.47;2.20;;;18.90;98.40;;;;;;5022117;28;45222;-65
2023/08/29 10:23:07;;;;;;;4.60;2.28;;;18.80;98.50;;;;;;5015785;28;44621;-65
2023/08/29 10:25:36;;;;;;;2.25;1.88;;;18.80;99.70;;;;;;5026089;28;45119;-65
2023/08/29 10:28:03;;;;;;;2.30;1.70;;;19.00;99.90;;;;;;5024608;28;45266;-65
2023/08/29 10:30:30;;;;;;;3.83;1.95;;;19.10;98.30;;;;;;5020128;28;45134;-65
2023/08/29 10:33:00;;;;;;;2.88;1.70;;;19.00;98.80;;;;;;5022337;28;45258;-65
2023/08/29 10:35:32;;;;;;;3.28;1.45;;;19.10;97.30;;;;;;5025125;28;45180;-65
2023/08/29 10:38:01;;;;;;;10.77;4.78;;;19.00;99.10;;;;;;5026549;28;45196;-65
2023/08/29 10:40:34;;;;;;;12.77;7.95;;;19.20;99.90;;;;;;5020820;28;44702;-65
2023/08/29 10:43:02;;;;;;;12.30;8.88;;;19.30;99.90;;;;;;5019256;28;45271;-65
2023/08/29 10:45:47;;;;;;;10.07;8.15;;;19.10;99.90;;;;;;5026741;28;45135;-65
2023/08/29 10:48:18;;;;;;;9.88;6.82;;;19.10;99.90;;;;;;5020835;28;45189;-65
2023/08/29 10:51:09;;;;;;;9.05;6.88;;;19.20;99.90;;;;;;5021471;28;45057;-65
2023/08/29 10:53:37;;;;;;;11.52;7.80;;;19.50;99.90;;;;;;5015471;28;45152;-65
2023/08/29 10:56:07;;;;;;;8.77;5.60;;;18.70;99.90;;;;;;5023898;28;45036;-65
2023/08/29 10:58:36;;;;;;;7.50;4.60;;;18.60;99.90;;;;;;5023884;28;47437;-65
2023/08/29 11:01:04;;;;;;;7.47;4.85;;;18.50;99.90;;;;;;5025766;28;45072;-65
2023/08/29 11:03:48;;;;;;;5.70;3.72;;;18.60;99.90;;;;;;5024322;28;45444;-65
2023/08/29 11:06:16;;;;;;;5.00;3.10;;;18.70;99.90;;;;;;5023985;28;45222;-65
2023/08/29 11:08:43;;;;;;;7.75;3.53;;;18.80;99.90;;;;;;5025827;28;45462;-65
2023/08/29 11:11:18;;;;;;;8.82;3.50;;;18.80;99.90;;;;;;5023753;28;45030;-66
2023/08/29 11:13:58;;;;;;;4.60;3.40;;;18.80;99.90;;;;;;5025503;28;45198;-65
2023/08/29 11:16:25;;;;;;;5.88;3.33;;;19.20;99.90;;;;;;5011088;28;45342;-65
2023/08/29 11:19:20;;;;;;;3.78;2.85;;;19.20;99.90;;;;;;5011329;28;46208;-65
2023/08/29 11:21:49;;;;;;;4.00;3.17;;;19.10;99.90;;;;;;5023629;28;44692;-65
2023/08/29 11:24:16;;;;;;;5.18;3.20;;;19.10;99.90;;;;;;5022193;28;45124;-65
2023/08/29 11:26:45;;;;;;;4.88;2.38;;;19.20;99.60;;;;;;5018944;28;45317;-65
2023/08/29 11:29:12;;;;;;;4.95;2.60;;;19.30;98.20;;;;;;5023726;28;45057;-65
2023/08/29 11:31:41;;;;;;;3.78;2.80;;;19.30;98.80;;;;;;5025296;28;45172;-65
2023/08/29 11:34:18;;;;;;;4.50;2.65;;;19.30;98.50;;;;;;5023181;28;45235;-65
2023/08/29 11:36:48;;;;;;;3.90;2.60;;;19.10;98.70;;;;;;5025737;28;45046;-65
2023/08/29 11:39:17;;;;;;;6.18;2.00;;;19.50;98.60;;;;;;5023396;28;46195;-65
2023/08/29 11:41:44;;;;;;;3.65;2.45;;;19.50;97.80;;;;;;5018544;28;45186;-65
2023/08/29 11:44:11;;;;;;;4.45;2.55;;;19.40;98.10;;;;;;5025119;28;45060;-65
2023/08/29 11:46:38;;;;;;;6.53;2.47;;;19.20;98.40;;;;;;5020667;28;45323;-65
2023/08/29 11:49:12;;;;;;;5.38;2.40;;;19.20;98.40;;;;;;5016263;28;45461;-65
2023/08/29 11:51:40;;;;;;;2.92;1.90;;;19.10;97.40;;;;;;5022717;28;45151;-65
2023/08/29 11:54:41;;;;;;;3.88;1.48;;;19.10;96.80;;;;;;5024656;28;45123;-65
2023/08/29 11:57:10;;;;;;;5.43;1.52;;;19.20;97.10;;;;;;5013346;28;45161;-65
2023/08/29 11:59:40;;;;;;;3.50;1.42;;;19.10;96.10;;;;;;5024968;28;45267;-65
2023/08/29 12:02:08;;;;;;;3.58;1.45;;;19.10;95.80;;;;;;5014541;28;45183;-65
2023/08/29 12:04:39;;;;;;;4.55;1.80;;;19.10;96.10;;;;;;5021852;28;45163;-65
2023/08/29 12:07:09;;;;;;;4.35;1.85;;;19.20;97.10;;;;;;5024817;28;45154;-65
2023/08/29 12:09:37;;;;;;;5.28;1.77;;;19.10;97.40;;;;;;5024275;28;46507;-65
2023/08/29 12:12:06;;;;;;;4.45;1.75;;;19.10;98.40;;;;;;5021450;28;45173;-65
2023/08/29 12:14:51;;;;;;;3.17;1.80;;;19.20;99.10;;;;;;5017080;28;45151;-65
2023/08/29 12:17:18;;;;;;;2.42;1.50;;;19.50;98.40;;;;;;5023090;28;45412;-65
2023/08/29 12:19:45;;;;;;;4.22;1.85;;;19.90;98.50;;;;;;5024865;28;45234;-65
2023/08/29 12:22:13;;;;;;;3.55;1.75;;;20.00;97.00;;;;;;5019579;28;45091;-66
2023/08/29 12:24:40;;;;;;;3.20;1.73;;;20.10;96.60;;;;;;5020725;28;45199;-64
2023/08/29 12:27:07;;;;;;;2.60;1.75;;;20.20;96.50;;;;;;5014131;28;45517;-65
2023/08/29 12:29:34;;;;;;;2.63;1.60;;;20.40;96.10;;;;;;5023890;28;46786;-65
2023/08/29 12:32:01;;;;;;;2.83;1.60;;;20.40;95.70;;;;;;5023486;28;45072;-65
2023/08/29 12:34:28;;;;;;;2.58;1.67;;;20.40;94.20;;;;;;5021974;28;45180;-65
2023/08/29 12:36:55;;;;;;;3.88;1.70;;;20.50;94.60;;;;;;5015701;28;45298;-65
2023/08/29 12:39:24;;;;;;;1.88;1.67;;;20.50;95.20;;;;;;5014553;28;48246;-65
2023/08/29 12:41:50;;;;;;;3.90;1.92;;;20.60;95.00;;;;;;5012375;28;45117;-65
2023/08/29 12:44:17;;;;;;;2.83;1.88;;;20.60;95.00;;;;;;5021830;28;45147;-65
2023/08/29 12:46:44;;;;;;;4.05;1.83;;;20.70;94.70;;;;;;5017167;28;45065;-66
2023/08/29 12:49:10;;;;;;;4.78;1.70;;;20.70;95.30;;;;;;5013401;28;45263;-66